createdAt,value
2023-05-23T00:01:10.325Z,98904.88
2023-05-23T00:03:37.517Z,98908.03
2023-05-23T00:06:07.264Z,98904.47
2023-05-23T00:08:33.862Z,98896.16
2023-05-23T00:11:00.686Z,98893.16
2023-05-23T00:13:27.266Z,98897.53
2023-05-23T00:15:53.840Z,98887.06
2023-05-23T00:18:20.518Z,98889.09
2023-05-23T00:20:47.170Z,98890.88
2023-05-23T00:23:18.973Z,98891.31
2023-05-23T00:25:53.069Z,98891.69
2023-05-23T00:28:20.381Z,98882.91
2023-05-23T00:30:47.299Z,98886.88
2023-05-23T00:33:14.584Z,98890.44
2023-05-23T00:35:44.360Z,98891.69
2023-05-23T00:38:11.683Z,98897.97
2023-05-23T00:40:38.393Z,98888.94
2023-05-23T00:43:05.034Z,98892.28
2023-05-23T00:45:31.884Z,98893.81
2023-05-23T00:48:00.292Z,98891.31
2023-05-23T00:50:32.072Z,98889.34
2023-05-23T00:53:01.287Z,98896.56
2023-05-23T00:55:29.117Z,98896.94
2023-05-23T00:57:57.394Z,98895.13
2023-05-23T01:00:26.102Z,98894.81
2023-05-23T01:02:53.576Z,98894.06
2023-05-23T01:05:22.683Z,98893.38
2023-05-23T01:07:51.149Z,98886.31
2023-05-23T01:10:22.093Z,98891.53
2023-05-23T01:12:48.610Z,98892.31
2023-05-23T01:15:21.628Z,98884.22
2023-05-23T01:18:30.563Z,98897.75
2023-05-23T01:21:06.668Z,98890.00
2023-05-23T01:23:47.327Z,98893.31
2023-05-23T01:26:19.798Z,98884.47
2023-05-23T01:28:50.183Z,98891.28
2023-05-23T01:31:18.554Z,98890.00
2023-05-23T01:33:46.415Z,98883.63
2023-05-23T01:36:15.120Z,98881.78
2023-05-23T01:38:41.890Z,98878.75
2023-05-23T01:41:08.590Z,98882.72
2023-05-23T01:43:35.495Z,98877.59
2023-05-23T01:46:04.279Z,98872.19
2023-05-23T01:48:31.772Z,98868.69
2023-05-23T01:50:59.071Z,98877.81
2023-05-23T01:53:26.712Z,98875.00
2023-05-23T01:55:53.970Z,98870.28
2023-05-23T01:58:21.022Z,98865.53
2023-05-23T02:00:47.759Z,98858.81
2023-05-23T02:03:14.594Z,98867.13
2023-05-23T02:05:41.596Z,98855.28
2023-05-23T02:08:08.399Z,98867.94
2023-05-23T02:10:34.990Z,98860.81
2023-05-23T02:13:01.588Z,98861.63
2023-05-23T02:15:28.130Z,98858.47
2023-05-23T02:17:54.724Z,98859.69
2023-05-23T02:20:21.390Z,98864.03
2023-05-23T02:22:48.028Z,98858.88
2023-05-23T02:25:15.904Z,98860.06
2023-05-23T02:27:42.586Z,98853.34
2023-05-23T02:30:09.690Z,98854.97
2023-05-23T02:32:38.027Z,98864.84
2023-05-23T02:35:06.236Z,98851.38
2023-05-23T02:37:32.940Z,98852.94
2023-05-23T02:39:59.513Z,98854.13
2023-05-23T02:42:26.160Z,98850.19
2023-05-23T02:44:52.694Z,98848.63
2023-05-23T02:47:19.270Z,98838.75
2023-05-23T02:49:46.011Z,98855.72
2023-05-23T02:52:13.857Z,98847.44
2023-05-23T02:54:41.072Z,98850.63
2023-05-23T02:57:08.991Z,98853.78
2023-05-23T02:59:35.586Z,98845.88
2023-05-23T03:02:02.193Z,98850.59
2023-05-23T03:04:29.616Z,98849.03
2023-05-23T03:06:56.575Z,98846.25
2023-05-23T03:09:23.176Z,98843.09
2023-05-23T03:11:49.751Z,98844.28
2023-05-23T03:14:16.510Z,98834.78
2023-05-23T03:16:43.191Z,98844.28
2023-05-23T03:19:09.880Z,98832.44
2023-05-23T03:21:36.412Z,98835.59
2023-05-23T03:24:03.463Z,98837.16
2023-05-23T03:26:30.666Z,98841.13
2023-05-23T03:28:57.272Z,98838.34
2023-05-23T03:31:23.841Z,98845.88
2023-05-23T03:33:50.775Z,98843.47
2023-05-23T03:36:17.438Z,98839.13
2023-05-23T03:38:43.990Z,98839.91
2023-05-23T03:41:11.209Z,98837.91
2023-05-23T03:43:37.747Z,98843.47
2023-05-23T03:46:04.333Z,98848.19
2023-05-23T03:48:30.979Z,98854.88
2023-05-23T03:50:57.620Z,98857.25
2023-05-23T03:53:24.184Z,98862.78
2023-05-23T03:55:50.805Z,98856.84
2023-05-23T03:58:17.404Z,98867.13
2023-05-23T04:00:43.960Z,98862.31
2023-05-23T04:03:11.677Z,98865.41
2023-05-23T04:05:38.400Z,98867.34
2023-05-23T04:08:05.149Z,98873.66
2023-05-23T04:10:31.709Z,98879.53
2023-05-23T04:12:58.864Z,98886.63
2023-05-23T04:15:25.816Z,98885.78
2023-05-23T04:17:52.466Z,98889.31
2023-05-23T04:20:19.225Z,98892.06
2023-05-23T04:22:45.922Z,98887.69
2023-05-23T04:25:12.549Z,98892.41
2023-05-23T04:27:42.181Z,98880.88
2023-05-23T04:30:09.987Z,98894.38
2023-05-23T04:32:38.307Z,98885.63
2023-05-23T04:35:05.263Z,98886.03
2023-05-23T04:37:33.062Z,98891.56
2023-05-23T04:40:03.850Z,98881.66
2023-05-23T04:42:30.507Z,98883.19
2023-05-23T04:44:58.268Z,98885.13
2023-05-23T04:47:28.117Z,98879.91
2023-05-23T04:49:56.294Z,98879.91
2023-05-23T04:52:23.334Z,98884.66
2023-05-23T04:54:49.924Z,98885.84
2023-05-23T04:57:17.128Z,98890.22
2023-05-23T04:59:43.803Z,98892.56
2023-05-23T05:02:10.445Z,98887.72
2023-05-23T05:04:36.987Z,98886.94
2023-05-23T05:07:03.686Z,98886.50
2023-05-23T05:09:31.573Z,98890.81
2023-05-23T05:11:59.207Z,98904.91
2023-05-23T05:14:27.350Z,98896.19
2023-05-23T05:16:57.841Z,98892.19
2023-05-23T05:19:24.683Z,98899.91
2023-05-23T05:21:51.335Z,98899.72
2023-05-23T05:24:18.435Z,98891.22
2023-05-23T05:26:45.005Z,98890.56
2023-05-23T05:29:11.572Z,98892.72
2023-05-23T05:31:38.348Z,98895.75
2023-05-23T05:34:04.989Z,98890.28
2023-05-23T05:36:32.501Z,98892.59
2023-05-23T05:38:59.270Z,98896.00
2023-05-23T05:41:26.910Z,98892.19
2023-05-23T05:43:53.965Z,98891.19
2023-05-23T05:46:20.882Z,98889.03
2023-05-23T05:48:47.567Z,98893.50
2023-05-23T05:51:14.206Z,98890.16
2023-05-23T05:53:40.942Z,98899.38
2023-05-23T05:56:09.329Z,98888.66
2023-05-23T05:58:36.185Z,98894.03
2023-05-23T06:01:02.853Z,98896.13
2023-05-23T06:03:29.600Z,98899.66
2023-05-23T06:05:56.246Z,98891.09
2023-05-23T06:08:23.018Z,98893.84
2023-05-23T06:10:49.589Z,98891.81
2023-05-23T06:13:16.186Z,98894.00
2023-05-23T06:15:43.246Z,98896.53
2023-05-23T06:18:10.250Z,98897.28
2023-05-23T06:20:36.859Z,98896.88
2023-05-23T06:23:05.658Z,98896.34
2023-05-23T06:25:32.517Z,98889.47
2023-05-23T06:27:59.500Z,98892.59
2023-05-23T06:30:26.060Z,98895.75
2023-05-23T06:32:52.705Z,98898.19
2023-05-23T06:35:19.321Z,98896.44
2023-05-23T06:37:46.127Z,98899.44
2023-05-23T06:40:14.550Z,98895.03
2023-05-23T06:42:41.711Z,98897.97
2023-05-23T06:45:09.306Z,98892.97
2023-05-23T06:47:35.870Z,98895.22
2023-05-23T06:50:02.996Z,98888.91
2023-05-23T06:52:29.592Z,98892.38
2023-05-23T06:54:56.101Z,98880.81
2023-05-23T06:57:22.712Z,98867.97
2023-05-23T06:59:49.309Z,98886.41
2023-05-23T07:02:15.989Z,98887.03
2023-05-23T07:04:42.541Z,98885.94
2023-05-23T07:07:09.096Z,98885.25
2023-05-23T07:09:35.677Z,98884.59
2023-05-23T07:12:02.278Z,98882.34
2023-05-23T07:14:28.864Z,98881.31
2023-05-23T07:16:55.508Z,98882.91
2023-05-23T07:19:22.111Z,98885.25
2023-05-23T07:21:48.754Z,98883.34
2023-05-23T07:24:15.467Z,98872.50
2023-05-23T07:26:42.084Z,98883.22
2023-05-23T07:29:08.762Z,98873.72
2023-05-23T07:31:35.548Z,98872.84
2023-05-23T07:34:02.705Z,98870.13
2023-05-23T07:36:34.045Z,98874.75
2023-05-23T07:39:01.754Z,98877.13
2023-05-23T07:41:28.351Z,98874.63
2023-05-23T07:43:54.989Z,98876.72
2023-05-23T07:46:22.997Z,98876.53
2023-05-23T07:48:49.703Z,98878.09
2023-05-23T07:51:21.385Z,98873.69
2023-05-23T07:53:48.144Z,98875.59
2023-05-23T07:56:14.762Z,98878.28
2023-05-23T07:58:41.408Z,98876.84
2023-05-23T08:01:08.112Z,98869.50
2023-05-23T08:03:34.656Z,98871.41
2023-05-23T08:06:01.229Z,98877.78
2023-05-23T08:08:27.872Z,98876.66
2023-05-23T08:10:54.407Z,98867.50
2023-05-23T08:13:21.028Z,98870.69
2023-05-23T08:15:47.570Z,98878.03
2023-05-23T08:18:14.281Z,98871.31
2023-05-23T08:20:41.158Z,98873.84
2023-05-23T08:23:07.915Z,98868.69
2023-05-23T08:25:34.839Z,98865.41
2023-05-23T08:28:01.871Z,98867.28
2023-05-23T08:30:29.103Z,98856.34
2023-05-23T08:32:57.179Z,98859.00
2023-05-23T08:35:24.434Z,98866.66
2023-05-23T08:37:52.367Z,98869.13
2023-05-23T08:40:21.483Z,98869.28
2023-05-23T08:42:49.680Z,98872.47
2023-05-23T08:45:17.225Z,98876.06
2023-05-23T08:47:45.889Z,98870.56
2023-05-23T08:50:14.982Z,98870.72
2023-05-23T08:52:57.943Z,98863.72
2023-05-23T08:55:28.320Z,98875.56
2023-05-23T08:57:56.326Z,98869.56
2023-05-23T09:00:25.291Z,98873.81
2023-05-23T09:02:52.751Z,98880.41
2023-05-23T09:05:19.638Z,98870.78
2023-05-23T09:07:51.156Z,98869.53
2023-05-23T09:10:22.416Z,98860.56
2023-05-23T09:12:49.700Z,98865.13
2023-05-23T09:15:17.262Z,98872.75
2023-05-23T09:17:45.000Z,98868.91
2023-05-23T09:20:16.514Z,98867.75
2023-05-23T09:22:48.258Z,98863.66
2023-05-23T09:25:15.610Z,98861.22
2023-05-23T09:27:44.970Z,98857.63
2023-05-23T09:30:13.896Z,98857.56
2023-05-23T09:32:40.722Z,98859.19
2023-05-23T09:35:08.439Z,98868.59
2023-05-23T09:37:46.113Z,98875.22
2023-05-23T09:40:14.732Z,98867.78
2023-05-23T09:42:46.323Z,98859.19
2023-05-23T09:45:14.468Z,98861.53
2023-05-23T09:47:52.710Z,98866.09
2023-05-23T09:50:20.276Z,98861.44
2023-05-23T09:52:47.278Z,98872.44
2023-05-23T09:55:14.851Z,98869.09
2023-05-23T09:57:43.295Z,98867.25
2023-05-23T10:00:11.592Z,98873.16
2023-05-23T10:03:08.460Z,98875.41
2023-05-23T10:05:43.026Z,98868.50
2023-05-23T10:08:14.611Z,98871.75
2023-05-23T10:11:16.968Z,98867.94
2023-05-23T10:13:45.218Z,98860.84
2023-05-23T10:16:27.435Z,98860.69
2023-05-23T10:18:58.799Z,98855.59
2023-05-23T10:21:32.249Z,98849.63
2023-05-23T10:24:00.683Z,98849.22
2023-05-23T10:26:28.555Z,98844.50
2023-05-23T10:28:57.283Z,98845.81
2023-05-23T10:31:25.170Z,98846.44
2023-05-23T10:34:11.997Z,98837.53
2023-05-23T10:36:52.561Z,98837.22
2023-05-23T10:39:33.304Z,98829.91
2023-05-23T10:42:04.105Z,98830.50
2023-05-23T10:44:31.615Z,98835.25
2023-05-23T10:47:02.349Z,98837.34
2023-05-23T10:49:42.033Z,98823.06
2023-05-23T10:52:11.099Z,98831.53
2023-05-23T10:54:46.425Z,98832.84
2023-05-23T10:57:17.280Z,98818.22
2023-05-23T10:59:45.616Z,98805.34
2023-05-23T11:02:17.098Z,98804.91
2023-05-23T11:04:44.212Z,98805.00
2023-05-23T11:07:33.343Z,98797.44
2023-05-23T11:10:16.821Z,98799.72
2023-05-23T11:12:44.773Z,98801.19
2023-05-23T11:15:17.373Z,98792.66
2023-05-23T11:17:54.972Z,98788.56
2023-05-23T11:20:28.347Z,98792.75
2023-05-23T11:23:08.336Z,98797.91
2023-05-23T11:26:04.019Z,98795.66
2023-05-23T11:28:31.035Z,98807.13
2023-05-23T11:30:57.621Z,98794.00
2023-05-23T11:33:24.381Z,98796.59
2023-05-23T11:35:52.039Z,98799.44
2023-05-23T11:38:18.683Z,98790.63
2023-05-23T11:40:46.946Z,98784.69
2023-05-23T11:43:18.279Z,98773.31
2023-05-23T11:45:46.864Z,98781.81
2023-05-23T11:48:17.844Z,98772.53
2023-05-23T11:50:50.829Z,98776.63
2023-05-23T11:53:20.876Z,98774.59
2023-05-23T11:55:58.334Z,98778.97
2023-05-23T11:58:34.913Z,98784.34
2023-05-23T12:01:12.818Z,98778.16
2023-05-23T12:03:51.351Z,98766.59
2023-05-23T12:06:23.630Z,98770.97
2023-05-23T12:08:52.350Z,98760.06
2023-05-23T12:11:19.119Z,98753.47
2023-05-23T12:13:45.838Z,98752.94
2023-05-23T12:16:15.096Z,98746.53
2023-05-23T12:18:43.334Z,98736.47
2023-05-23T12:21:10.545Z,98736.84
2023-05-23T12:23:37.829Z,98737.22
2023-05-23T12:26:10.328Z,98739.50
2023-05-23T12:28:38.949Z,98724.09
2023-05-23T12:31:38.995Z,98701.47
2023-05-23T12:34:05.652Z,98704.72
2023-05-23T12:36:32.540Z,98684.53
2023-05-23T12:39:03.837Z,98677.34
2023-05-23T12:41:30.542Z,98681.13
2023-05-23T12:43:57.300Z,98688.53
2023-05-23T12:46:25.187Z,98695.47
2023-05-23T12:48:52.934Z,98703.06
2023-05-23T12:51:20.044Z,98709.50
2023-05-23T12:53:47.014Z,98716.28
2023-05-23T12:56:13.684Z,98724.50
2023-05-23T12:58:40.283Z,98728.28
2023-05-23T13:01:06.887Z,98725.59
2023-05-23T13:03:33.535Z,98720.31
2023-05-23T13:06:00.204Z,98721.63
2023-05-23T13:08:27.626Z,98724.66
2023-05-23T13:10:54.463Z,98752.94
2023-05-23T13:13:21.198Z,98780.78
2023-05-23T13:15:48.947Z,98777.00
2023-05-23T13:18:17.554Z,98777.84
2023-05-23T13:20:44.124Z,98777.94
2023-05-23T13:23:10.857Z,98777.69
2023-05-23T13:25:37.446Z,98766.91
2023-05-23T13:28:04.120Z,98760.53
2023-05-23T13:30:31.600Z,98768.09
2023-05-23T13:32:58.298Z,98780.50
2023-05-23T13:35:24.942Z,98802.44
2023-05-23T13:37:51.762Z,98820.63
2023-05-23T13:40:21.040Z,98831.44
2023-05-23T13:42:49.543Z,98837.72
2023-05-23T13:45:16.149Z,98849.00
2023-05-23T13:47:42.751Z,98849.19
2023-05-23T13:50:09.954Z,98859.44
2023-05-23T13:52:36.603Z,98861.06
2023-05-23T13:55:04.823Z,98866.25
2023-05-23T13:57:31.738Z,98858.38
2023-05-23T13:59:58.341Z,98854.41
2023-05-23T14:02:24.945Z,98844.91
2023-05-23T14:04:52.007Z,98827.19
2023-05-23T14:07:18.969Z,98824.94
2023-05-23T14:09:45.704Z,98810.34
2023-05-23T14:12:12.362Z,98804.03
2023-05-23T14:14:39.450Z,98795.13
2023-05-23T14:17:14.446Z,98795.47
2023-05-23T14:19:41.198Z,98793.84
2023-05-23T14:22:07.888Z,98781.69
2023-05-23T14:24:34.540Z,98776.28
2023-05-23T14:27:02.556Z,98772.34
2023-05-23T14:29:29.217Z,98768.41
2023-05-23T14:31:56.026Z,98768.72
2023-05-23T14:34:22.691Z,98767.31
2023-05-23T14:36:49.227Z,98771.41
2023-05-23T14:39:16.349Z,98788.44
2023-05-23T14:41:43.180Z,98809.31
2023-05-23T14:44:09.797Z,98845.69
2023-05-23T14:46:36.435Z,98870.25
2023-05-23T14:49:03.093Z,98853.31
2023-05-23T14:51:44.072Z,98877.94
2023-05-23T14:54:12.083Z,98877.50
2023-05-23T14:56:41.102Z,98862.88
2023-05-23T14:59:08.148Z,98878.63
2023-05-23T15:01:36.083Z,98925.09
2023-05-23T15:04:05.689Z,98927.03
2023-05-23T15:06:32.379Z,98935.38
2023-05-23T15:08:59.001Z,98977.72
2023-05-23T15:11:27.456Z,98996.81
2023-05-23T15:13:54.377Z,99021.78
2023-05-23T15:16:21.933Z,99008.66
2023-05-23T15:18:48.801Z,99025.72
2023-05-23T15:21:15.582Z,99037.19
2023-05-23T15:23:42.250Z,99049.06
2023-05-23T15:26:08.869Z,99056.59
2023-05-23T15:28:35.425Z,99057.75
2023-05-23T15:31:02.056Z,99067.25
2023-05-23T15:33:28.686Z,99055.34
2023-05-23T15:35:57.810Z,99067.63
2023-05-23T15:38:24.395Z,99075.56
2023-05-23T15:40:54.457Z,99076.72
2023-05-23T15:43:21.114Z,99074.38
2023-05-23T15:45:49.902Z,99082.28
2023-05-23T15:48:16.672Z,99077.56
2023-05-23T15:50:43.930Z,99065.69
2023-05-23T15:53:10.869Z,99080.31
2023-05-23T15:55:39.755Z,99075.59
2023-05-23T15:58:08.003Z,99070.84
2023-05-23T16:00:34.560Z,99069.25
2023-05-23T16:03:01.211Z,99066.88
2023-05-23T16:05:27.910Z,99066.88
2023-05-23T16:07:54.791Z,99064.50
2023-05-23T16:10:21.530Z,99060.94
2023-05-23T16:12:48.127Z,99066.44
2023-05-23T16:15:14.695Z,99063.69
2023-05-23T16:17:41.288Z,99072.00
2023-05-23T16:20:08.446Z,99072.00
2023-05-23T16:22:35.062Z,99075.19
2023-05-23T16:25:01.721Z,99083.09
2023-05-23T16:27:28.388Z,99082.34
2023-05-23T16:29:54.943Z,99070.84
2023-05-23T16:32:21.560Z,99087.88
2023-05-23T16:34:52.893Z,99078.38
2023-05-23T16:37:21.116Z,99082.31
2023-05-23T16:39:47.752Z,99074.38
2023-05-23T16:42:14.481Z,99079.16
2023-05-23T16:44:41.783Z,99076.75
2023-05-23T16:47:08.442Z,99072.81
2023-05-23T16:49:35.018Z,99063.69
2023-05-23T16:52:01.703Z,99063.66
2023-05-23T16:54:28.450Z,99065.63
2023-05-23T16:56:55.074Z,99053.34
2023-05-23T16:59:21.666Z,99052.16
2023-05-23T17:01:48.355Z,99051.75
2023-05-23T17:04:15.036Z,99049.34
2023-05-23T17:06:41.650Z,99046.22
2023-05-23T17:09:08.446Z,99033.13
2023-05-23T17:11:35.127Z,99035.88
2023-05-23T17:14:01.855Z,99032.31
2023-05-23T17:16:33.192Z,99027.94
2023-05-23T17:19:03.101Z,99025.16
2023-05-23T17:21:29.718Z,99026.34
2023-05-23T17:23:56.252Z,99020.00
2023-05-23T17:26:22.887Z,99020.00
2023-05-23T17:28:49.445Z,99011.72
2023-05-23T17:31:16.336Z,99003.75
2023-05-23T17:33:42.970Z,99008.50
2023-05-23T17:36:09.892Z,99000.56
2023-05-23T17:38:36.692Z,98995.81
2023-05-23T17:41:03.832Z,98994.25
2023-05-23T17:43:30.657Z,98988.72
2023-05-23T17:45:58.147Z,98987.13
2023-05-23T17:48:38.214Z,98990.31
2023-05-23T17:51:11.445Z,98984.72
2023-05-23T17:53:41.311Z,98986.75
2023-05-23T17:56:11.516Z,98984.78
2023-05-23T17:58:39.335Z,98978.44
2023-05-23T18:01:07.920Z,98983.56
2023-05-23T18:03:34.635Z,98976.03
2023-05-23T18:06:01.171Z,98975.66
2023-05-23T18:08:27.982Z,98972.47
2023-05-23T18:10:54.597Z,98967.69
2023-05-23T18:13:21.412Z,98964.94
2023-05-23T18:15:47.972Z,98961.78
2023-05-23T18:18:16.426Z,98964.16
2023-05-23T18:20:43.337Z,98961.00
2023-05-23T18:23:10.193Z,98960.59
2023-05-23T18:25:36.733Z,98968.94
2023-05-23T18:28:03.294Z,98964.59
2023-05-23T18:30:29.864Z,98958.66
2023-05-23T18:32:56.628Z,98968.22
2023-05-23T18:35:23.364Z,98969.00
2023-05-23T18:37:50.029Z,98972.56
2023-05-23T18:40:16.782Z,98976.16
2023-05-23T18:42:43.380Z,98976.56
2023-05-23T18:45:10.635Z,98979.75
2023-05-23T18:47:37.284Z,98977.38
2023-05-23T18:50:03.992Z,98989.63
2023-05-23T18:52:33.513Z,98983.28
2023-05-23T18:55:00.109Z,98997.53
2023-05-23T18:57:26.793Z,98992.75
2023-05-23T18:59:53.407Z,98999.88
2023-05-23T19:02:20.282Z,99003.06
2023-05-23T19:04:47.020Z,98995.09
2023-05-23T19:07:13.704Z,99003.03
2023-05-23T19:09:40.535Z,98992.34
2023-05-23T19:12:07.278Z,98994.31
2023-05-23T19:14:33.896Z,99002.22
2023-05-23T19:17:00.602Z,98996.66
2023-05-23T19:19:30.031Z,99002.22
2023-05-23T19:21:58.261Z,99005.38
2023-05-23T19:24:24.862Z,99012.94
2023-05-23T19:26:51.482Z,99013.69
2023-05-23T19:29:18.074Z,99016.03
2023-05-23T19:31:44.808Z,99005.69
2023-05-23T19:34:12.082Z,99014.41
2023-05-23T19:36:38.676Z,99012.44
2023-05-23T19:39:05.247Z,99019.56
2023-05-23T19:41:32.855Z,99022.34
2023-05-23T19:43:59.884Z,99022.72
2023-05-23T19:46:27.404Z,99029.03
2023-05-23T19:48:54.776Z,99019.53
2023-05-23T19:51:21.387Z,99024.31
2023-05-23T19:53:47.991Z,99027.09
2023-05-23T19:56:14.616Z,99034.63
2023-05-23T19:58:41.195Z,99040.56
2023-05-23T20:01:07.809Z,99043.34
2023-05-23T20:03:34.432Z,99043.34
2023-05-23T20:06:01.469Z,99040.19
2023-05-23T20:08:28.137Z,99037.81
2023-05-23T20:10:55.903Z,99045.78
2023-05-23T20:13:22.471Z,99044.19
2023-05-23T20:15:49.060Z,99041.03
2023-05-23T20:18:15.826Z,99050.53
2023-05-23T20:20:42.558Z,99059.25
2023-05-23T20:23:09.660Z,99048.53
2023-05-23T20:25:36.414Z,99049.72
2023-05-23T20:28:03.081Z,99060.00
2023-05-23T20:30:29.677Z,99063.53
2023-05-23T20:32:56.296Z,99067.91
2023-05-23T20:35:23.702Z,99060.75
2023-05-23T20:37:53.686Z,99068.69
2023-05-23T20:40:20.878Z,99073.50
2023-05-23T20:42:47.429Z,99075.84
2023-05-23T20:45:15.449Z,99067.13
2023-05-23T20:47:42.627Z,99070.69
2023-05-23T20:50:10.838Z,99079.81
2023-05-23T20:52:39.583Z,99080.59
2023-05-23T20:55:07.589Z,99085.34
2023-05-23T20:57:36.627Z,99081.44
2023-05-23T21:00:14.516Z,99085.41
2023-05-23T21:02:42.127Z,99086.16
2023-05-23T21:05:10.328Z,99094.06
2023-05-23T21:07:37.098Z,99092.50
2023-05-23T21:10:04.546Z,99102.84
2023-05-23T21:12:31.131Z,99109.56
2023-05-23T21:14:57.677Z,99111.97
2023-05-23T21:17:24.952Z,99115.59
2023-05-23T21:19:51.771Z,99114.00
2023-05-23T21:22:18.330Z,99115.97
2023-05-23T21:24:44.935Z,99120.38
2023-05-23T21:27:11.797Z,99110.88
2023-05-23T21:29:38.513Z,99112.47
2023-05-23T21:32:05.395Z,99114.03
2023-05-23T21:34:31.960Z,99116.03
2023-05-23T21:36:58.555Z,99123.16
2023-05-23T21:39:26.165Z,99131.09
2023-05-23T21:41:55.426Z,99133.88
2023-05-23T21:44:21.966Z,99128.69
2023-05-23T21:46:48.898Z,99133.03
2023-05-23T21:49:15.648Z,99140.59
2023-05-23T21:51:42.402Z,99138.97
2023-05-23T21:54:09.008Z,99141.72
2023-05-23T21:56:35.534Z,99141.25
2023-05-23T21:59:02.105Z,99159.06
2023-05-23T22:01:28.728Z,99159.44
2023-05-23T22:03:55.416Z,99166.16
2023-05-23T22:06:22.019Z,99169.31
2023-05-23T22:08:48.652Z,99168.50
2023-05-23T22:11:15.645Z,99164.50
2023-05-23T22:13:42.595Z,99173.22
2023-05-23T22:16:09.242Z,99169.31
2023-05-23T22:18:50.962Z,99177.63
2023-05-23T22:21:18.441Z,99176.50
2023-05-23T22:23:45.357Z,99175.72
2023-05-23T22:26:12.651Z,99175.75
2023-05-23T22:28:39.447Z,99169.44
2023-05-23T22:31:06.623Z,99186.16
2023-05-23T22:33:33.337Z,99188.16
2023-05-23T22:36:00.022Z,99193.69
2023-05-23T22:38:26.699Z,99188.53
2023-05-23T22:40:53.280Z,99190.91
2023-05-23T22:43:21.906Z,99213.09
2023-05-23T22:45:50.145Z,99185.38
2023-05-23T22:48:19.341Z,99196.47
2023-05-23T22:50:46.779Z,99183.00
2023-05-23T22:53:16.658Z,99188.16
2023-05-23T22:55:43.313Z,99187.78
2023-05-23T22:58:09.903Z,99191.72
2023-05-23T23:00:36.704Z,99183.81
2023-05-23T23:03:03.934Z,99190.16
2023-05-23T23:05:30.939Z,99185.41
2023-05-23T23:07:57.592Z,99179.44
2023-05-23T23:10:24.212Z,99176.28
2023-05-23T23:12:50.968Z,99177.09
2023-05-23T23:15:17.677Z,99175.88
2023-05-23T23:17:44.485Z,99173.50
2023-05-23T23:20:12.653Z,99182.63
2023-05-23T23:22:39.505Z,99170.72
2023-05-23T23:25:10.592Z,99176.69
2023-05-23T23:27:38.270Z,99169.53
2023-05-23T23:30:08.568Z,99160.81
2023-05-23T23:32:35.409Z,99167.94
2023-05-23T23:35:02.177Z,99164.00
2023-05-23T23:37:28.697Z,99156.06
2023-05-23T23:39:55.230Z,99164.38
2023-05-23T23:42:21.822Z,99154.50
2023-05-23T23:44:48.654Z,99155.66
2023-05-23T23:47:15.222Z,99148.13
2023-05-23T23:49:42.305Z,99140.59
2023-05-23T23:52:09.284Z,99138.63
2023-05-23T23:54:35.879Z,99142.59
2023-05-23T23:57:02.481Z,99144.97
2023-05-23T23:59:29.083Z,99147.34
